sensor_id;sensor_type;location;lat;lon;timestamp;temperature;humidity
9537;DHT22;4807;48.024;11.726;2022-08-18T00:01:14;19.70;99.90
9537;DHT22;4807;48.024;11.726;2022-08-18T00:04:24;19.80;99.90
9537;DHT22;4807;48.024;11.726;2022-08-18T00:07:43;19.80;99.90
9537;DHT22;4807;48.024;11.726;2022-08-18T00:10:52;19.70;99.90
9537;DHT22;4807;48.024;11.726;2022-08-18T00:14:00;19.70;99.90
9537;DHT22;4807;48.024;11.726;2022-08-18T00:17:09;19.80;99.90
9537;DHT22;4807;48.024;11.726;2022-08-18T00:20:19;19.80;99.90
9537;DHT22;4807;48.024;11.726;2022-08-18T00:23:31;19.70;99.90
9537;DHT22;4807;48.024;11.726;2022-08-18T00:26:39;19.60;99.90
9537;DHT22;4807;48.024;11.726;2022-08-18T00:29:53;19.70;99.90
9537;DHT22;4807;48.024;11.726;2022-08-18T00:33:03;19.60;99.90
9537;DHT22;4807;48.024;11.726;2022-08-18T00:36:12;19.50;99.90
9537;DHT22;4807;48.024;11.726;2022-08-18T00:39:21;19.50;99.90
9537;DHT22;4807;48.024;11.726;2022-08-18T00:42:32;19.50;99.90
9537;DHT22;4807;48.024;11.726;2022-08-18T00:45:47;19.40;99.90
9537;DHT22;4807;48.024;11.726;2022-08-18T00:48:55;19.40;99.90
9537;DHT22;4807;48.024;11.726;2022-08-18T00:52:04;19.40;99.90
9537;DHT22;4807;48.024;11.726;2022-08-18T00:55:15;19.30;99.90
9537;DHT22;4807;48.024;11.726;2022-08-18T00:58:29;19.30;99.90
9537;DHT22;4807;48.024;11.726;2022-08-18T01:01:42;19.40;99.90
9537;DHT22;4807;48.024;11.726;2022-08-18T01:04:57;19.20;99.90
9537;DHT22;4807;48.024;11.726;2022-08-18T01:08:11;19.10;99.90
9537;DHT22;4807;48.024;11.726;2022-08-18T01:11:36;19.10;99.90
9537;DHT22;4807;48.024;11.726;2022-08-18T01:14:45;19.20;99.90
9537;DHT22;4807;48.024;11.726;2022-08-18T01:17:54;18.90;99.90
9537;DHT22;4807;48.024;11.726;2022-08-18T01:21:24;18.70;99.90
9537;DHT22;4807;48.024;11.726;2022-08-18T01:24:58;18.60;99.90
9537;DHT22;4807;48.024;11.726;2022-08-18T01:28:26;18.70;99.90
9537;DHT22;4807;48.024;11.726;2022-08-18T01:31:37;18.40;99.90
9537;DHT22;4807;48.024;11.726;2022-08-18T01:35:00;18.30;99.90
9537;DHT22;4807;48.024;11.726;2022-08-18T01:38:09;18.30;99.90
9537;DHT22;4807;48.024;11.726;2022-08-18T01:41:21;18.20;99.90
9537;DHT22;4807;48.024;11.726;2022-08-18T01:44:37;18.20;99.90
9537;DHT22;4807;48.024;11.726;2022-08-18T01:47:47;18.10;99.90
9537;DHT22;4807;48.024;11.726;2022-08-18T01:50:56;17.90;99.90
9537;DHT22;4807;48.024;11.726;2022-08-18T01:54:04;17.80;99.90
9537;DHT22;4807;48.024;11.726;2022-08-18T01:57:16;17.80;99.90
9537;DHT22;4807;48.024;11.726;2022-08-18T02:00:28;17.70;99.90
9537;DHT22;4807;48.024;11.726;2022-08-18T02:03:40;17.80;99.90
9537;DHT22;4807;48.024;11.726;2022-08-18T02:06:51;17.70;99.90
9537;DHT22;4807;48.024;11.726;2022-08-18T02:09:59;17.70;99.90
9537;DHT22;4807;48.024;11.726;2022-08-18T02:13:28;17.60;99.90
9537;DHT22;4807;48.024;11.726;2022-08-18T02:19:54;17.60;99.90
9537;DHT22;4807;48.024;11.726;2022-08-18T02:23:02;17.60;99.90
9537;DHT22;4807;48.024;11.726;2022-08-18T02:26:13;17.50;99.90
9537;DHT22;4807;48.024;11.726;2022-08-18T02:29:25;17.40;99.90
9537;DHT22;4807;48.024;11.726;2022-08-18T02:32:34;17.30;99.90
9537;DHT22;4807;48.024;11.726;2022-08-18T02:35:42;17.30;99.90
9537;DHT22;4807;48.024;11.726;2022-08-18T02:38:51;17.30;99.90
9537;DHT22;4807;48.024;11.726;2022-08-18T02:42:06;17.30;99.90
9537;DHT22;4807;48.024;11.726;2022-08-18T02:45:16;17.20;99.90
9537;DHT22;4807;48.024;11.726;2022-08-18T02:48:25;17.30;99.90
9537;DHT22;4807;48.024;11.726;2022-08-18T02:51:36;17.20;99.90
9537;DHT22;4807;48.024;11.726;2022-08-18T02:54:45;17.20;99.90
9537;DHT22;4807;48.024;11.726;2022-08-18T02:57:54;17.20;99.90
9537;DHT22;4807;48.024;11.726;2022-08-18T03:01:03;17.10;99.90
9537;DHT22;4807;48.024;11.726;2022-08-18T03:04:16;17.00;99.90
9537;DHT22;4807;48.024;11.726;2022-08-18T03:07:34;17.00;99.90
9537;DHT22;4807;48.024;11.726;2022-08-18T03:10:50;16.90;99.90
9537;DHT22;4807;48.024;11.726;2022-08-18T03:13:59;17.00;99.90
9537;DHT22;4807;48.024;11.726;2022-08-18T03:17:09;16.90;99.90
9537;DHT22;4807;48.024;11.726;2022-08-18T03:20:17;16.90;99.90
9537;DHT22;4807;48.024;11.726;2022-08-18T03:23:37;16.80;99.90
9537;DHT22;4807;48.024;11.726;2022-08-18T03:26:48;16.80;99.90
9537;DHT22;4807;48.024;11.726;2022-08-18T03:29:56;16.70;99.90
9537;DHT22;4807;48.024;11.726;2022-08-18T03:33:06;16.90;99.90
9537;DHT22;4807;48.024;11.726;2022-08-18T03:36:17;16.70;99.90
9537;DHT22;4807;48.024;11.726;2022-08-18T03:39:27;16.80;99.90
9537;DHT22;4807;48.024;11.726;2022-08-18T03:42:36;16.60;99.90
9537;DHT22;4807;48.024;11.726;2022-08-18T03:45:44;16.50;99.90
9537;DHT22;4807;48.024;11.726;2022-08-18T03:48:56;16.50;99.90
9537;DHT22;4807;48.024;11.726;2022-08-18T03:52:08;16.40;99.90
9537;DHT22;4807;48.024;11.726;2022-08-18T03:55:17;16.50;99.90
9537;DHT22;4807;48.024;11.726;2022-08-18T03:58:26;16.60;99.90
9537;DHT22;4807;48.024;11.726;2022-08-18T04:01:37;16.60;99.90
9537;DHT22;4807;48.024;11.726;2022-08-18T04:04:48;16.60;99.90
9537;DHT22;4807;48.024;11.726;2022-08-18T04:07:57;16.40;99.90
9537;DHT22;4807;48.024;11.726;2022-08-18T04:11:05;16.30;99.90
9537;DHT22;4807;48.024;11.726;2022-08-18T04:14:16;16.40;99.90
9537;DHT22;4807;48.024;11.726;2022-08-18T04:17:26;16.40;99.90
9537;DHT22;4807;48.024;11.726;2022-08-18T04:20:36;16.50;99.90
9537;DHT22;4807;48.024;11.726;2022-08-18T04:24:06;16.60;99.90
9537;DHT22;4807;48.024;11.726;2022-08-18T04:27:14;16.50;99.90
9537;DHT22;4807;48.024;11.726;2022-08-18T04:30:23;16.40;99.90
9537;DHT22;4807;48.024;11.726;2022-08-18T04:33:31;16.40;99.90
9537;DHT22;4807;48.024;11.726;2022-08-18T04:36:42;16.20;99.90
9537;DHT22;4807;48.024;11.726;2022-08-18T04:39:51;16.20;99.90
9537;DHT22;4807;48.024;11.726;2022-08-18T04:42:59;16.20;99.90
9537;DHT22;4807;48.024;11.726;2022-08-18T04:46:08;16.20;99.90
9537;DHT22;4807;48.024;11.726;2022-08-18T04:49:19;16.50;99.90
9537;DHT22;4807;48.024;11.726;2022-08-18T04:52:31;16.60;99.90
9537;DHT22;4807;48.024;11.726;2022-08-18T04:55:57;16.40;99.90
9537;DHT22;4807;48.024;11.726;2022-08-18T04:59:07;16.40;99.90
9537;DHT22;4807;48.024;11.726;2022-08-18T05:02:19;16.40;99.90
9537;DHT22;4807;48.024;11.726;2022-08-18T05:05:30;16.50;99.90
9537;DHT22;4807;48.024;11.726;2022-08-18T05:08:39;16.50;99.90
9537;DHT22;4807;48.024;11.726;2022-08-18T05:11:49;16.60;99.90
9537;DHT22;4807;48.024;11.726;2022-08-18T05:14:57;16.80;99.90
9537;DHT22;4807;48.024;11.726;2022-08-18T05:18:05;17.10;99.90
9537;DHT22;4807;48.024;11.726;2022-08-18T05:21:20;17.20;99.90
9537;DHT22;4807;48.024;11.726;2022-08-18T05:24:32;17.30;99.90
9537;DHT22;4807;48.024;11.726;2022-08-18T05:27:43;17.30;99.90
9537;DHT22;4807;48.024;11.726;2022-08-18T05:30:52;17.40;99.90
9537;DHT22;4807;48.024;11.726;2022-08-18T05:34:02;17.50;99.90
9537;DHT22;4807;48.024;11.726;2022-08-18T05:37:18;17.80;99.90
9537;DHT22;4807;48.024;11.726;2022-08-18T05:40:43;18.10;99.90
9537;DHT22;4807;48.024;11.726;2022-08-18T05:43:53;18.60;99.90
9537;DHT22;4807;48.024;11.726;2022-08-18T05:47:06;18.80;99.90
9537;DHT22;4807;48.024;11.726;2022-08-18T05:50:19;19.10;99.90
9537;DHT22;4807;48.024;11.726;2022-08-18T05:53:29;19.30;99.90
9537;DHT22;4807;48.024;11.726;2022-08-18T05:56:54;19.50;99.90
9537;DHT22;4807;48.024;11.726;2022-08-18T06:00:08;19.70;99.90
9537;DHT22;4807;48.024;11.726;2022-08-18T06:03:22;19.70;99.90
9537;DHT22;4807;48.024;11.726;2022-08-18T06:06:36;19.80;99.90
9537;DHT22;4807;48.024;11.726;2022-08-18T06:09:48;19.80;99.90
9537;DHT22;4807;48.024;11.726;2022-08-18T06:13:02;19.90;99.90
9537;DHT22;4807;48.024;11.726;2022-08-18T06:16:19;20.00;99.90
9537;DHT22;4807;48.024;11.726;2022-08-18T06:19:44;20.10;99.90
9537;DHT22;4807;48.024;11.726;2022-08-18T06:23:07;20.20;99.90
9537;DHT22;4807;48.024;11.726;2022-08-18T06:26:32;20.00;99.90
9537;DHT22;4807;48.024;11.726;2022-08-18T06:29:58;20.00;99.90
9537;DHT22;4807;48.024;11.726;2022-08-18T06:33:23;19.90;99.90
9537;DHT22;4807;48.024;11.726;2022-08-18T06:37:00;19.80;99.90
9537;DHT22;4807;48.024;11.726;2022-08-18T06:40:16;19.80;99.90
9537;DHT22;4807;48.024;11.726;2022-08-18T06:43:25;19.90;99.90
9537;DHT22;4807;48.024;11.726;2022-08-18T06:46:55;19.90;99.90
9537;DHT22;4807;48.024;11.726;2022-08-18T06:50:15;19.80;99.90
9537;DHT22;4807;48.024;11.726;2022-08-18T06:53:53;20.00;99.90
9537;DHT22;4807;48.024;11.726;2022-08-18T06:57:04;20.20;99.90
9537;DHT22;4807;48.024;11.726;2022-08-18T07:00:22;20.40;99.90
9537;DHT22;4807;48.024;11.726;2022-08-18T07:03:44;20.50;99.90
9537;DHT22;4807;48.024;11.726;2022-08-18T07:06:57;20.70;99.90
9537;DHT22;4807;48.024;11.726;2022-08-18T07:10:28;20.90;99.90
9537;DHT22;4807;48.024;11.726;2022-08-18T07:13:40;21.10;99.90
9537;DHT22;4807;48.024;11.726;2022-08-18T07:16:50;20.90;99.90
9537;DHT22;4807;48.024;11.726;2022-08-18T07:20:19;21.00;99.90
9537;DHT22;4807;48.024;11.726;2022-08-18T07:23:33;21.30;99.90
9537;DHT22;4807;48.024;11.726;2022-08-18T07:27:02;21.60;99.90
9537;DHT22;4807;48.024;11.726;2022-08-18T07:30:29;21.80;99.90
9537;DHT22;4807;48.024;11.726;2022-08-18T07:33:47;21.90;99.90
9537;DHT22;4807;48.024;11.726;2022-08-18T07:37:05;22.00;99.50
9537;DHT22;4807;48.024;11.726;2022-08-18T07:40:24;21.70;99.90
9537;DHT22;4807;48.024;11.726;2022-08-18T07:43:51;22.00;99.90
9537;DHT22;4807;48.024;11.726;2022-08-18T07:47:12;22.70;98.80
9537;DHT22;4807;48.024;11.726;2022-08-18T07:50:26;23.30;96.90
9537;DHT22;4807;48.024;11.726;2022-08-18T07:53:58;23.10;96.60
9537;DHT22;4807;48.024;11.726;2022-08-18T07:57:45;23.10;96.70
9537;DHT22;4807;48.024;11.726;2022-08-18T08:01:04;23.80;95.30
9537;DHT22;4807;48.024;11.726;2022-08-18T08:04:27;24.40;93.80
9537;DHT22;4807;48.024;11.726;2022-08-18T08:07:48;24.40;92.80
9537;DHT22;4807;48.024;11.726;2022-08-18T08:11:17;24.40;93.00
9537;DHT22;4807;48.024;11.726;2022-08-18T08:14:39;25.70;91.80
9537;DHT22;4807;48.024;11.726;2022-08-18T08:18:01;26.90;86.70
9537;DHT22;4807;48.024;11.726;2022-08-18T08:21:17;26.50;86.30
9537;DHT22;4807;48.024;11.726;2022-08-18T08:24:44;25.50;90.00
9537;DHT22;4807;48.024;11.726;2022-08-18T08:28:07;25.00;89.80
9537;DHT22;4807;48.024;11.726;2022-08-18T08:31:28;24.60;91.00
9537;DHT22;4807;48.024;11.726;2022-08-18T08:34:49;24.70;91.10
9537;DHT22;4807;48.024;11.726;2022-08-18T08:38:09;24.10;91.30
9537;DHT22;4807;48.024;11.726;2022-08-18T08:41:45;24.00;91.80
9537;DHT22;4807;48.024;11.726;2022-08-18T08:45:01;24.00;91.50
9537;DHT22;4807;48.024;11.726;2022-08-18T08:48:19;23.40;92.40
9537;DHT22;4807;48.024;11.726;2022-08-18T08:51:39;24.10;91.90
9537;DHT22;4807;48.024;11.726;2022-08-18T08:54:54;25.30;91.00
9537;DHT22;4807;48.024;11.726;2022-08-18T08:58:15;26.70;85.50
9537;DHT22;4807;48.024;11.726;2022-08-18T09:01:34;27.50;80.10
9537;DHT22;4807;48.024;11.726;2022-08-18T09:04:53;28.10;77.40
9537;DHT22;4807;48.024;11.726;2022-08-18T09:12:21;28.10;78.20
9537;DHT22;4807;48.024;11.726;2022-08-18T09:16:04;28.10;76.50
9537;DHT22;4807;48.024;11.726;2022-08-18T09:19:39;26.20;81.50
9537;DHT22;4807;48.024;11.726;2022-08-18T09:23:03;24.90;86.20
9537;DHT22;4807;48.024;11.726;2022-08-18T09:26:26;24.30;88.30
9537;DHT22;4807;48.024;11.726;2022-08-18T09:29:50;24.50;88.00
9537;DHT22;4807;48.024;11.726;2022-08-18T09:33:12;25.30;88.50
9537;DHT22;4807;48.024;11.726;2022-08-18T09:36:37;25.70;84.90
9537;DHT22;4807;48.024;11.726;2022-08-18T09:39:59;25.30;85.60
9537;DHT22;4807;48.024;11.726;2022-08-18T09:43:58;25.40;84.80
9537;DHT22;4807;48.024;11.726;2022-08-18T09:47:59;25.60;84.40
9537;DHT22;4807;48.024;11.726;2022-08-18T09:51:30;25.20;84.80
9537;DHT22;4807;48.024;11.726;2022-08-18T09:54:50;25.00;84.80
9537;DHT22;4807;48.024;11.726;2022-08-18T09:58:16;25.00;86.20
9537;DHT22;4807;48.024;11.726;2022-08-18T10:01:48;25.30;86.60
9537;DHT22;4807;48.024;11.726;2022-08-18T10:05:24;25.90;83.90
9537;DHT22;4807;48.024;11.726;2022-08-18T10:08:54;26.10;81.80
9537;DHT22;4807;48.024;11.726;2022-08-18T10:12:47;25.80;82.20
9537;DHT22;4807;48.024;11.726;2022-08-18T10:16:09;25.10;85.30
9537;DHT22;4807;48.024;11.726;2022-08-18T10:19:35;25.20;84.40
9537;DHT22;4807;48.024;11.726;2022-08-18T10:22:54;25.80;83.60
9537;DHT22;4807;48.024;11.726;2022-08-18T10:26:03;25.80;81.90
9537;DHT22;4807;48.024;11.726;2022-08-18T10:29:47;26.00;81.10
9537;DHT22;4807;48.024;11.726;2022-08-18T10:33:01;26.40;81.60
9537;DHT22;4807;48.024;11.726;2022-08-18T10:36:43;26.70;79.70
9537;DHT22;4807;48.024;11.726;2022-08-18T10:39:56;25.80;80.10
9537;DHT22;4807;48.024;11.726;2022-08-18T10:43:12;25.20;83.00
9537;DHT22;4807;48.024;11.726;2022-08-18T10:46:49;25.70;82.10
9537;DHT22;4807;48.024;11.726;2022-08-18T10:50:03;25.40;80.80
9537;DHT22;4807;48.024;11.726;2022-08-18T10:53:21;25.50;81.10
9537;DHT22;4807;48.024;11.726;2022-08-18T10:56:48;25.90;81.20
9537;DHT22;4807;48.024;11.726;2022-08-18T11:00:06;26.10;79.20
9537;DHT22;4807;48.024;11.726;2022-08-18T11:03:35;26.60;77.50
9537;DHT22;4807;48.024;11.726;2022-08-18T11:07:09;26.90;75.60
9537;DHT22;4807;48.024;11.726;2022-08-18T11:10:37;26.50;78.20
9537;DHT22;4807;48.024;11.726;2022-08-18T11:14:19;25.90;78.70
9537;DHT22;4807;48.024;11.726;2022-08-18T11:17:55;25.70;79.10
9537;DHT22;4807;48.024;11.726;2022-08-18T11:21:38;26.30;78.20
9537;DHT22;4807;48.024;11.726;2022-08-18T11:24:59;27.10;75.10
9537;DHT22;4807;48.024;11.726;2022-08-18T11:28:19;26.60;74.60
9537;DHT22;4807;48.024;11.726;2022-08-18T11:31:37;26.20;77.40
9537;DHT22;4807;48.024;11.726;2022-08-18T11:34:51;26.60;80.70
9537;DHT22;4807;48.024;11.726;2022-08-18T11:38:12;27.00;76.90
9537;DHT22;4807;48.024;11.726;2022-08-18T11:41:29;27.50;74.60
9537;DHT22;4807;48.024;11.726;2022-08-18T11:45:14;27.10;75.30
9537;DHT22;4807;48.024;11.726;2022-08-18T11:48:35;26.80;77.20
9537;DHT22;4807;48.024;11.726;2022-08-18T11:52:18;26.80;76.50
9537;DHT22;4807;48.024;11.726;2022-08-18T11:56:23;27.10;76.60
9537;DHT22;4807;48.024;11.726;2022-08-18T11:59:38;26.70;76.20
9537;DHT22;4807;48.024;11.726;2022-08-18T12:03:15;26.90;75.90
9537;DHT22;4807;48.024;11.726;2022-08-18T12:06:32;27.20;75.80
9537;DHT22;4807;48.024;11.726;2022-08-18T12:10:12;27.50;75.30
9537;DHT22;4807;48.024;11.726;2022-08-18T12:13:42;27.50;74.20
9537;DHT22;4807;48.024;11.726;2022-08-18T12:16:57;27.70;73.10
9537;DHT22;4807;48.024;11.726;2022-08-18T12:20:10;27.50;73.80
9537;DHT22;4807;48.024;11.726;2022-08-18T12:23:20;27.70;73.40
9537;DHT22;4807;48.024;11.726;2022-08-18T12:26:28;27.70;74.20
9537;DHT22;4807;48.024;11.726;2022-08-18T12:29:49;27.50;73.50
9537;DHT22;4807;48.024;11.726;2022-08-18T12:33:01;27.60;74.50
9537;DHT22;4807;48.024;11.726;2022-08-18T12:36:18;27.80;73.20
9537;DHT22;4807;48.024;11.726;2022-08-18T12:39:30;27.90;72.80
9537;DHT22;4807;48.024;11.726;2022-08-18T12:42:43;27.70;73.00
9537;DHT22;4807;48.024;11.726;2022-08-18T12:45:54;27.10;75.50
9537;DHT22;4807;48.024;11.726;2022-08-18T12:49:05;27.10;75.50
9537;DHT22;4807;48.024;11.726;2022-08-18T12:52:26;27.10;75.70
9537;DHT22;4807;48.024;11.726;2022-08-18T12:55:39;27.40;75.80
9537;DHT22;4807;48.024;11.726;2022-08-18T12:58:52;27.70;74.50
9537;DHT22;4807;48.024;11.726;2022-08-18T13:02:02;27.70;74.40
9537;DHT22;4807;48.024;11.726;2022-08-18T13:05:12;27.80;75.30
9537;DHT22;4807;48.024;11.726;2022-08-18T13:08:23;27.90;73.90
9537;DHT22;4807;48.024;11.726;2022-08-18T13:11:39;27.90;73.90
9537;DHT22;4807;48.024;11.726;2022-08-18T13:14:48;27.60;74.90
9537;DHT22;4807;48.024;11.726;2022-08-18T13:17:57;27.60;75.30
9537;DHT22;4807;48.024;11.726;2022-08-18T13:21:08;27.50;75.00
9537;DHT22;4807;48.024;11.726;2022-08-18T13:24:20;27.00;76.10
9537;DHT22;4807;48.024;11.726;2022-08-18T13:27:29;26.70;78.60
9537;DHT22;4807;48.024;11.726;2022-08-18T13:30:51;26.70;77.80
9537;DHT22;4807;48.024;11.726;2022-08-18T13:34:01;26.80;77.40
9537;DHT22;4807;48.024;11.726;2022-08-18T13:37:17;26.40;78.60
9537;DHT22;4807;48.024;11.726;2022-08-18T13:40:29;26.50;78.90
9537;DHT22;4807;48.024;11.726;2022-08-18T13:43:43;26.50;78.30
9537;DHT22;4807;48.024;11.726;2022-08-18T13:46:54;26.30;79.60
9537;DHT22;4807;48.024;11.726;2022-08-18T13:50:04;26.30;79.60
9537;DHT22;4807;48.024;11.726;2022-08-18T13:53:18;26.60;79.50
9537;DHT22;4807;48.024;11.726;2022-08-18T13:56:29;26.80;77.70
9537;DHT22;4807;48.024;11.726;2022-08-18T13:59:40;26.80;78.70
9537;DHT22;4807;48.024;11.726;2022-08-18T14:02:52;27.10;78.10
9537;DHT22;4807;48.024;11.726;2022-08-18T14:06:05;27.40;76.70
9537;DHT22;4807;48.024;11.726;2022-08-18T14:09:20;27.20;76.70
9537;DHT22;4807;48.024;11.726;2022-08-18T14:12:45;27.10;77.20
9537;DHT22;4807;48.024;11.726;2022-08-18T14:15:56;27.20;76.70
9537;DHT22;4807;48.024;11.726;2022-08-18T14:19:09;26.70;77.80
9537;DHT22;4807;48.024;11.726;2022-08-18T14:22:34;26.40;78.70
9537;DHT22;4807;48.024;11.726;2022-08-18T14:26:01;26.40;79.80
9537;DHT22;4807;48.024;11.726;2022-08-18T14:29:31;26.60;80.00
9537;DHT22;4807;48.024;11.726;2022-08-18T14:32:52;26.80;80.00
9537;DHT22;4807;48.024;11.726;2022-08-18T14:36:04;26.90;79.20
9537;DHT22;4807;48.024;11.726;2022-08-18T14:39:16;26.90;79.10
9537;DHT22;4807;48.024;11.726;2022-08-18T14:42:25;27.00;78.80
9537;DHT22;4807;48.024;11.726;2022-08-18T14:45:57;27.10;79.50
9537;DHT22;4807;48.024;11.726;2022-08-18T14:49:08;27.30;78.30
9537;DHT22;4807;48.024;11.726;2022-08-18T14:52:19;27.50;78.30
9537;DHT22;4807;48.024;11.726;2022-08-18T14:55:30;27.20;78.20
9537;DHT22;4807;48.024;11.726;2022-08-18T14:58:40;27.20;79.40
9537;DHT22;4807;48.024;11.726;2022-08-18T15:01:50;27.30;77.60
9537;DHT22;4807;48.024;11.726;2022-08-18T15:05:00;27.20;78.20
9537;DHT22;4807;48.024;11.726;2022-08-18T15:08:30;27.00;78.60
9537;DHT22;4807;48.024;11.726;2022-08-18T15:11:42;26.80;80.40
9537;DHT22;4807;48.024;11.726;2022-08-18T15:14:55;26.80;79.90
9537;DHT22;4807;48.024;11.726;2022-08-18T15:18:10;26.70;78.90
9537;DHT22;4807;48.024;11.726;2022-08-18T15:21:29;26.40;79.70
9537;DHT22;4807;48.024;11.726;2022-08-18T15:24:55;26.20;81.90
9537;DHT22;4807;48.024;11.726;2022-08-18T15:28:24;26.00;81.30
9537;DHT22;4807;48.024;11.726;2022-08-18T15:31:35;25.80;82.90
9537;DHT22;4807;48.024;11.726;2022-08-18T15:35:07;25.60;83.60
9537;DHT22;4807;48.024;11.726;2022-08-18T15:38:19;25.60;84.70
9537;DHT22;4807;48.024;11.726;2022-08-18T15:41:33;25.70;84.50
9537;DHT22;4807;48.024;11.726;2022-08-18T15:44:51;25.80;84.50
9537;DHT22;4807;48.024;11.726;2022-08-18T15:48:00;25.80;83.80
9537;DHT22;4807;48.024;11.726;2022-08-18T15:51:11;25.90;84.10
9537;DHT22;4807;48.024;11.726;2022-08-18T15:54:23;25.80;83.40
9537;DHT22;4807;48.024;11.726;2022-08-18T15:57:32;25.80;83.70
9537;DHT22;4807;48.024;11.726;2022-08-18T16:00:46;25.60;84.10
9537;DHT22;4807;48.024;11.726;2022-08-18T16:03:56;25.40;84.70
9537;DHT22;4807;48.024;11.726;2022-08-18T16:07:09;25.20;86.70
9537;DHT22;4807;48.024;11.726;2022-08-18T16:10:20;25.00;88.20
9537;DHT22;4807;48.024;11.726;2022-08-18T16:13:30;24.90;88.90
9537;DHT22;4807;48.024;11.726;2022-08-18T16:16:38;24.90;89.40
9537;DHT22;4807;48.024;11.726;2022-08-18T16:19:48;24.80;89.60
9537;DHT22;4807;48.024;11.726;2022-08-18T16:23:00;24.70;90.00
9537;DHT22;4807;48.024;11.726;2022-08-18T16:26:09;24.60;89.60
9537;DHT22;4807;48.024;11.726;2022-08-18T16:29:25;24.60;88.60
9537;DHT22;4807;48.024;11.726;2022-08-18T16:32:34;24.60;89.10
9537;DHT22;4807;48.024;11.726;2022-08-18T16:35:47;24.70;89.60
9537;DHT22;4807;48.024;11.726;2022-08-18T16:39:00;24.70;88.80
9537;DHT22;4807;48.024;11.726;2022-08-18T16:42:09;24.70;88.70
9537;DHT22;4807;48.024;11.726;2022-08-18T16:45:18;24.60;88.10
9537;DHT22;4807;48.024;11.726;2022-08-18T16:48:27;24.70;88.10
9537;DHT22;4807;48.024;11.726;2022-08-18T16:51:36;24.60;88.50
9537;DHT22;4807;48.024;11.726;2022-08-18T16:54:46;24.50;88.10
9537;DHT22;4807;48.024;11.726;2022-08-18T16:58:04;24.30;89.10
9537;DHT22;4807;48.024;11.726;2022-08-18T17:01:29;24.10;89.60
9537;DHT22;4807;48.024;11.726;2022-08-18T17:04:56;24.10;89.90
9537;DHT22;4807;48.024;11.726;2022-08-18T17:08:08;24.00;90.00
9537;DHT22;4807;48.024;11.726;2022-08-18T17:11:18;23.90;90.30
9537;DHT22;4807;48.024;11.726;2022-08-18T17:14:29;23.80;90.30
9537;DHT22;4807;48.024;11.726;2022-08-18T17:17:38;23.80;90.20
9537;DHT22;4807;48.024;11.726;2022-08-18T17:20:47;23.80;90.20
9537;DHT22;4807;48.024;11.726;2022-08-18T17:23:57;23.80;90.30
9537;DHT22;4807;48.024;11.726;2022-08-18T17:27:14;23.70;91.30
9537;DHT22;4807;48.024;11.726;2022-08-18T17:30:41;23.50;91.50
9537;DHT22;4807;48.024;11.726;2022-08-18T17:33:59;23.40;91.60
9537;DHT22;4807;48.024;11.726;2022-08-18T17:37:14;23.30;92.70
9537;DHT22;4807;48.024;11.726;2022-08-18T17:40:27;23.20;94.40
9537;DHT22;4807;48.024;11.726;2022-08-18T17:43:43;23.00;95.40
9537;DHT22;4807;48.024;11.726;2022-08-18T17:46:57;22.70;96.70
9537;DHT22;4807;48.024;11.726;2022-08-18T17:50:27;22.60;97.60
9537;DHT22;4807;48.024;11.726;2022-08-18T17:54:12;22.30;97.50
9537;DHT22;4807;48.024;11.726;2022-08-18T17:57:31;22.00;98.20
9537;DHT22;4807;48.024;11.726;2022-08-18T18:00:44;22.00;98.60
9537;DHT22;4807;48.024;11.726;2022-08-18T18:03:53;21.70;98.80
9537;DHT22;4807;48.024;11.726;2022-08-18T18:07:01;21.60;99.30
9537;DHT22;4807;48.024;11.726;2022-08-18T18:10:21;21.50;99.10
9537;DHT22;4807;48.024;11.726;2022-08-18T18:13:34;21.50;99.50
9537;DHT22;4807;48.024;11.726;2022-08-18T18:16:43;21.00;97.70
9537;DHT22;4807;48.024;11.726;2022-08-18T18:20:14;21.00;97.50
9537;DHT22;4807;48.024;11.726;2022-08-18T18:23:32;20.90;97.80
9537;DHT22;4807;48.024;11.726;2022-08-18T18:26:46;20.80;98.10
9537;DHT22;4807;48.024;11.726;2022-08-18T18:29:59;20.70;99.00
9537;DHT22;4807;48.024;11.726;2022-08-18T18:33:15;20.70;99.90
9537;DHT22;4807;48.024;11.726;2022-08-18T18:36:32;20.70;99.90
9537;DHT22;4807;48.024;11.726;2022-08-18T18:39:54;20.70;99.90
9537;DHT22;4807;48.024;11.726;2022-08-18T18:43:22;20.60;99.90
9537;DHT22;4807;48.024;11.726;2022-08-18T18:46:39;20.50;99.90
9537;DHT22;4807;48.024;11.726;2022-08-18T18:50:00;20.50;99.90
9537;DHT22;4807;48.024;11.726;2022-08-18T18:53:20;20.30;99.90
9537;DHT22;4807;48.024;11.726;2022-08-18T18:56:38;20.10;99.90
9537;DHT22;4807;48.024;11.726;2022-08-18T19:00:00;19.90;99.90
9537;DHT22;4807;48.024;11.726;2022-08-18T19:03:21;19.90;99.90
9537;DHT22;4807;48.024;11.726;2022-08-18T19:06:44;19.70;99.90
9537;DHT22;4807;48.024;11.726;2022-08-18T19:10:03;19.60;99.90
9537;DHT22;4807;48.024;11.726;2022-08-18T19:13:18;19.60;99.90
9537;DHT22;4807;48.024;11.726;2022-08-18T19:16:45;19.60;99.90
9537;DHT22;4807;48.024;11.726;2022-08-18T19:20:03;19.50;99.90
9537;DHT22;4807;48.024;11.726;2022-08-18T19:23:25;19.70;99.90
9537;DHT22;4807;48.024;11.726;2022-08-18T19:26:54;19.80;99.90
9537;DHT22;4807;48.024;11.726;2022-08-18T19:30:10;19.80;99.90
9537;DHT22;4807;48.024;11.726;2022-08-18T19:33:28;19.70;99.90
9537;DHT22;4807;48.024;11.726;2022-08-18T19:36:51;19.70;99.90
9537;DHT22;4807;48.024;11.726;2022-08-18T19:40:13;19.40;99.90
9537;DHT22;4807;48.024;11.726;2022-08-18T19:43:36;19.40;99.90
9537;DHT22;4807;48.024;11.726;2022-08-18T19:46:52;20.70;99.90
9537;DHT22;4807;48.024;11.726;2022-08-18T19:50:12;19.30;99.90
9537;DHT22;4807;48.024;11.726;2022-08-18T19:53:40;19.60;99.90
9537;DHT22;4807;48.024;11.726;2022-08-18T19:57:12;19.40;99.90
9537;DHT22;4807;48.024;11.726;2022-08-18T20:00:40;19.40;99.90
9537;DHT22;4807;48.024;11.726;2022-08-18T20:04:12;19.80;99.90
9537;DHT22;4807;48.024;11.726;2022-08-18T20:07:54;19.40;99.90
9537;DHT22;4807;48.024;11.726;2022-08-18T20:11:55;19.30;99.90
9537;DHT22;4807;48.024;11.726;2022-08-18T20:15:23;19.50;99.90
9537;DHT22;4807;48.024;11.726;2022-08-18T20:18:36;18.80;99.90
9537;DHT22;4807;48.024;11.726;2022-08-18T20:22:00;17.40;99.90
9537;DHT22;4807;48.024;11.726;2022-08-18T20:25:39;16.60;99.90
9537;DHT22;4807;48.024;11.726;2022-08-18T20:28:52;18.00;99.90
9537;DHT22;4807;48.024;11.726;2022-08-18T20:32:02;18.40;99.90
9537;DHT22;4807;48.024;11.726;2022-08-18T20:35:16;18.50;99.90
9537;DHT22;4807;48.024;11.726;2022-08-18T20:38:35;16.20;99.90
9537;DHT22;4807;48.024;11.726;2022-08-18T20:41:47;18.00;99.90
9537;DHT22;4807;48.024;11.726;2022-08-18T20:44:59;19.40;99.90
9537;DHT22;4807;48.024;11.726;2022-08-18T20:48:27;18.00;99.90
9537;DHT22;4807;48.024;11.726;2022-08-18T20:51:56;17.80;99.90
9537;DHT22;4807;48.024;11.726;2022-08-18T20:55:23;17.90;99.90
9537;DHT22;4807;48.024;11.726;2022-08-18T20:58:55;17.70;99.90
9537;DHT22;4807;48.024;11.726;2022-08-18T21:02:32;16.40;99.90
9537;DHT22;4807;48.024;11.726;2022-08-18T21:05:57;17.60;99.90
9537;DHT22;4807;48.024;11.726;2022-08-18T21:09:16;17.90;99.90
9537;DHT22;4807;48.024;11.726;2022-08-18T21:12:32;17.40;99.90
9537;DHT22;4807;48.024;11.726;2022-08-18T21:15:47;17.70;99.90